Weather at Crossmaglen Airstrip

Public forecast

Using degrees Celsius for public forecast. Weather courtesy of forecast.io.

Closest aviation weather report (METAR) to Crossmaglen Airstrip

Closest report is Belfast International Airport, 37.7 nm (69.8 km) NNE.

2024/05/28 17:20 (retrieved 32 minutes ago)

EGAA 281720Z AUTO 28007KT 9999 FEW032/// //////CB 15/13 Q1003

Closest aviation forecast (TAF) to Crossmaglen Airstrip

Closest forecast is Belfast International Airport, 37.7 nm (69.8 km) NNE.

2024/05/28 12:00 (retrieved 6 hours ago)

TAF EGAA 281059Z 2812/2912 16010KT 9999 SCT030 BECMG 2812/2814 26010KT TEMPO 2812/2821 3000 +SHRA BKN014 BKN020CB PROB30 TEMPO 2812/2821 +TSGS TEMPO 2821/2910 6000 RA BKN012 PROB30 TEMPO 2902/2909 BKN008 PROB40 TEMPO 2910/2912 7000 SHRA BKN014